createdAt,value
2023-02-12T00:01:28.891Z,1.50
2023-02-12T00:03:57.399Z,1.50
2023-02-12T00:06:25.190Z,1.50
2023-02-12T00:08:54.932Z,1.60
2023-02-12T00:11:24.886Z,1.60
2023-02-12T00:13:53.032Z,1.70
2023-02-12T00:16:23.815Z,1.60
2023-02-12T00:18:56.029Z,1.50
2023-02-12T00:21:23.664Z,1.50
2023-02-12T00:23:51.048Z,1.50
2023-02-12T00:26:20.067Z,1.40
2023-02-12T00:28:50.435Z,1.50
2023-02-12T00:31:27.474Z,1.50
2023-02-12T00:33:57.888Z,1.60
2023-02-12T00:36:27.437Z,1.70
2023-02-12T00:38:56.011Z,1.70
2023-02-12T00:41:25.748Z,1.70
2023-02-12T00:43:54.109Z,1.70
2023-02-12T00:46:21.650Z,1.70
2023-02-12T00:48:49.789Z,1.60
2023-02-12T00:51:20.477Z,1.40
2023-02-12T00:53:47.979Z,1.40
2023-02-12T00:56:15.654Z,1.50
2023-02-12T00:58:44.044Z,1.50
2023-02-12T01:01:11.833Z,1.60
2023-02-12T01:03:39.255Z,1.60
2023-02-12T01:06:07.057Z,1.60
2023-02-12T01:08:34.891Z,1.60
2023-02-12T01:11:04.614Z,1.60
2023-02-12T01:13:34.426Z,1.50
2023-02-12T01:16:08.879Z,1.40
2023-02-12T01:18:37.978Z,1.30
2023-02-12T01:21:15.178Z,1.30
2023-02-12T01:23:43.615Z,1.30
2023-02-12T01:26:15.068Z,1.40
2023-02-12T01:28:44.132Z,1.40
2023-02-12T01:31:14.954Z,1.40
2023-02-12T01:33:43.051Z,1.40
2023-02-12T01:36:11.659Z,1.30
2023-02-12T01:38:39.133Z,1.30
2023-02-12T01:41:12.571Z,1.40
2023-02-12T01:43:41.130Z,1.40
2023-02-12T01:46:12.938Z,1.50
2023-02-12T01:48:47.260Z,1.50
2023-02-12T01:51:20.328Z,1.40
2023-02-12T01:53:53.557Z,1.50
2023-02-12T01:56:23.780Z,1.50
2023-02-12T01:58:53.095Z,1.50
2023-02-12T02:01:24.169Z,1.50
2023-02-12T02:03:54.207Z,1.40
2023-02-12T02:06:28.004Z,1.40
2023-02-12T02:08:56.971Z,1.30
2023-02-12T02:11:42.844Z,1.30
2023-02-12T02:14:28.748Z,1.30
2023-02-12T02:17:00.469Z,1.30
2023-02-12T02:20:05.841Z,1.30
2023-02-12T02:22:55.079Z,1.30
2023-02-12T02:25:40.725Z,1.40
2023-02-12T02:28:26.738Z,1.20
2023-02-12T02:31:00.841Z,1.20
2023-02-12T02:33:37.211Z,1.10
2023-02-12T02:36:26.363Z,1.00
2023-02-12T02:38:59.901Z,1.00
2023-02-12T02:41:37.008Z,1.00
2023-02-12T02:44:13.571Z,0.90
2023-02-12T02:46:48.892Z,0.90
2023-02-12T02:49:22.969Z,0.90
2023-02-12T02:51:55.661Z,1.00
2023-02-12T02:54:41.948Z,1.10
2023-02-12T02:57:30.412Z,1.10
2023-02-12T03:00:20.440Z,1.10
2023-02-12T03:03:00.535Z,1.10
2023-02-12T03:05:34.823Z,1.10
2023-02-12T03:08:12.576Z,1.00
2023-02-12T03:10:44.868Z,1.00
2023-02-12T03:13:18.963Z,1.00
2023-02-12T03:16:04.440Z,1.00
2023-02-12T03:18:47.006Z,1.10
2023-02-12T03:21:20.520Z,1.10
2023-02-12T03:24:00.868Z,1.10
2023-02-12T03:26:47.259Z,1.10
2023-02-12T03:29:15.048Z,1.10
2023-02-12T03:31:58.742Z,1.20
2023-02-12T03:35:04.189Z,1.10
2023-02-12T03:37:43.812Z,1.10
2023-02-12T03:40:35.590Z,1.10
2023-02-12T03:43:06.449Z,1.10
2023-02-12T03:45:42.903Z,1.10
2023-02-12T03:48:13.552Z,1.10
2023-02-12T03:50:51.863Z,1.10
2023-02-12T03:53:19.777Z,1.00
2023-02-12T03:55:51.745Z,1.00
2023-02-12T03:58:23.831Z,1.00
2023-02-12T04:00:51.425Z,1.00
2023-02-12T04:03:19.138Z,1.00
2023-02-12T04:05:46.579Z,0.90
2023-02-12T04:08:14.960Z,0.70
2023-02-12T04:11:04.188Z,0.70
2023-02-12T04:13:45.286Z,0.60
2023-02-12T04:16:31.111Z,0.60
2023-02-12T04:18:59.180Z,0.60
2023-02-12T04:21:35.367Z,0.60
2023-02-12T04:24:14.473Z,0.60
2023-02-12T04:26:58.011Z,0.70
2023-02-12T04:29:37.575Z,0.70
2023-02-12T04:32:43.999Z,0.70
2023-02-12T04:35:22.113Z,0.70
2023-02-12T04:37:59.071Z,0.50
2023-02-12T04:40:26.989Z,0.50
2023-02-12T04:42:54.833Z,0.50
2023-02-12T04:45:33.919Z,0.50
2023-02-12T04:48:01.684Z,0.60
2023-02-12T04:50:42.702Z,0.60
2023-02-12T04:53:11.099Z,0.60
2023-02-12T04:55:38.592Z,0.60
2023-02-12T04:58:06.221Z,0.60
2023-02-12T05:00:33.717Z,0.60
2023-02-12T05:03:01.343Z,0.60
2023-02-12T05:05:28.892Z,0.70
2023-02-12T05:07:56.342Z,0.60
2023-02-12T05:10:23.769Z,0.60
2023-02-12T05:12:54.441Z,0.60
2023-02-12T05:15:22.432Z,0.60
2023-02-12T05:17:49.860Z,0.60
2023-02-12T05:20:17.382Z,0.60
2023-02-12T05:22:44.872Z,0.60
2023-02-12T05:25:12.340Z,0.50
2023-02-12T05:27:39.728Z,0.60
2023-02-12T05:30:09.560Z,0.60
2023-02-12T05:32:36.989Z,0.70
2023-02-12T05:35:04.756Z,0.70
2023-02-12T05:37:36.200Z,0.70
2023-02-12T05:40:08.808Z,0.50
2023-02-12T05:42:36.379Z,0.50
2023-02-12T05:45:04.022Z,0.50
2023-02-12T05:47:31.440Z,0.40
2023-02-12T05:49:58.844Z,0.40
2023-02-12T05:52:26.242Z,0.50
2023-02-12T05:54:53.635Z,0.50
2023-02-12T05:57:21.122Z,0.60
2023-02-12T05:59:48.552Z,0.60
2023-02-12T06:02:16.001Z,0.50
2023-02-12T06:04:43.437Z,0.40
2023-02-12T06:07:10.836Z,0.30
2023-02-12T06:09:38.279Z,0.40
2023-02-12T06:12:05.758Z,0.40
2023-02-12T06:14:33.254Z,0.40
2023-02-12T06:17:00.662Z,0.40
2023-02-12T06:19:28.114Z,0.40
2023-02-12T06:21:55.616Z,0.40
2023-02-12T06:24:23.109Z,0.30
2023-02-12T06:26:51.713Z,0.30
2023-02-12T06:29:20.094Z,0.30
2023-02-12T06:31:47.994Z,0.30
2023-02-12T06:34:18.111Z,0.20
2023-02-12T06:36:46.583Z,0.30
2023-02-12T06:39:15.455Z,0.40
2023-02-12T06:41:43.962Z,0.60
2023-02-12T06:44:12.508Z,0.60
2023-02-12T06:46:40.186Z,0.70
2023-02-12T06:49:07.745Z,0.70
2023-02-12T06:51:36.446Z,0.60
2023-02-12T06:54:04.143Z,0.60
2023-02-12T06:56:31.574Z,0.60
2023-02-12T06:59:01.249Z,0.70
2023-02-12T07:01:30.105Z,0.70
2023-02-12T07:04:02.891Z,0.80
2023-02-12T07:06:36.097Z,0.90
2023-02-12T07:09:05.097Z,1.00
2023-02-12T07:11:37.588Z,1.20
2023-02-12T07:14:06.282Z,1.40
2023-02-12T07:16:33.784Z,2.10
2023-02-12T07:19:01.327Z,3.40
2023-02-12T07:21:28.774Z,4.80
2023-02-12T07:23:56.265Z,5.60
2023-02-12T07:26:23.983Z,6.20
2023-02-12T07:28:51.827Z,6.80
2023-02-12T07:31:24.092Z,7.20
2023-02-12T07:33:56.847Z,7.80
2023-02-12T07:36:25.628Z,8.20
2023-02-12T07:38:54.524Z,8.90
2023-02-12T07:41:22.990Z,9.60
2023-02-12T07:43:55.544Z,10.20
2023-02-12T07:46:32.409Z,10.50
2023-02-12T07:49:05.445Z,11.30
2023-02-12T07:51:35.199Z,11.90
2023-02-12T07:54:03.327Z,12.30
2023-02-12T07:56:35.323Z,12.70
2023-02-12T07:59:11.013Z,12.90
2023-02-12T08:01:40.999Z,13.10
2023-02-12T08:04:13.171Z,13.00
2023-02-12T08:06:43.811Z,13.10
2023-02-12T08:09:13.864Z,12.80
2023-02-12T08:11:43.478Z,12.50
2023-02-12T08:14:13.540Z,12.50
2023-02-12T08:16:42.737Z,12.30
2023-02-12T08:19:19.517Z,12.30
2023-02-12T08:21:52.952Z,12.20
2023-02-12T08:24:22.166Z,11.80
2023-02-12T08:26:50.237Z,11.70
2023-02-12T08:29:20.668Z,11.70
2023-02-12T08:31:49.794Z,12.10
2023-02-12T08:34:23.621Z,12.80
2023-02-12T08:36:54.176Z,13.10
2023-02-12T08:39:22.741Z,14.10
2023-02-12T08:41:50.835Z,14.60
2023-02-12T08:44:18.791Z,14.60
2023-02-12T08:46:48.604Z,15.40
2023-02-12T08:49:21.933Z,16.10
2023-02-12T08:51:52.236Z,16.40
2023-02-12T08:54:22.794Z,16.90
2023-02-12T08:56:50.584Z,17.50
2023-02-12T08:59:18.403Z,17.70
2023-02-12T09:01:45.909Z,17.60
2023-02-12T09:04:18.090Z,17.80
2023-02-12T09:06:46.273Z,18.20
2023-02-12T09:09:14.932Z,18.50
2023-02-12T09:11:42.983Z,18.50
2023-02-12T09:14:14.214Z,17.90
2023-02-12T09:16:41.933Z,17.80
2023-02-12T09:19:12.475Z,17.50
2023-02-12T09:21:39.997Z,17.90
2023-02-12T09:24:10.834Z,18.60
2023-02-12T09:26:39.724Z,19.20
2023-02-12T09:29:07.317Z,18.90
2023-02-12T09:31:34.982Z,19.10
2023-02-12T09:34:05.221Z,19.00
2023-02-12T09:36:33.351Z,19.30
2023-02-12T09:39:00.874Z,19.40
2023-02-12T09:41:48.364Z,19.70
2023-02-12T09:44:36.261Z,19.80
2023-02-12T09:47:30.132Z,20.20
2023-02-12T09:50:15.639Z,20.90
2023-02-12T09:52:44.439Z,21.00
2023-02-12T09:55:17.006Z,21.20
2023-02-12T09:57:46.200Z,21.70
2023-02-12T10:00:31.596Z,21.60
2023-02-12T10:03:05.886Z,21.50
2023-02-12T10:05:51.005Z,20.80
2023-02-12T10:08:43.747Z,21.00
2023-02-12T10:11:25.398Z,21.50
2023-02-12T10:14:34.880Z,22.40
2023-02-12T10:17:08.119Z,22.30
2023-02-12T10:20:01.317Z,22.30
2023-02-12T10:22:28.741Z,21.80
2023-02-12T10:25:24.006Z,22.00
2023-02-12T10:27:57.102Z,21.70
2023-02-12T10:30:51.355Z,22.50
2023-02-12T10:33:36.520Z,22.30
2023-02-12T10:36:08.311Z,21.80
2023-02-12T10:38:40.265Z,21.30
2023-02-12T10:41:08.267Z,20.40
2023-02-12T10:43:35.765Z,19.30
2023-02-12T10:46:03.274Z,18.10
2023-02-12T10:48:35.528Z,17.20
2023-02-12T10:51:12.468Z,16.00
2023-02-12T10:53:42.245Z,15.10
2023-02-12T10:56:17.307Z,14.80
2023-02-12T10:58:53.829Z,14.40
2023-02-12T11:01:29.288Z,13.80
2023-02-12T11:04:00.792Z,13.40
2023-02-12T11:06:33.335Z,13.20
2023-02-12T11:09:00.821Z,13.00
2023-02-12T11:11:37.051Z,12.90
2023-02-12T11:14:10.257Z,12.70
2023-02-12T11:16:46.655Z,12.50
2023-02-12T11:19:21.805Z,12.30
2023-02-12T11:21:50.438Z,12.20
2023-02-12T11:24:26.777Z,12.10
2023-02-12T11:27:11.890Z,12.00
2023-02-12T11:29:40.380Z,11.80
2023-02-12T11:32:15.174Z,11.70
2023-02-12T11:34:42.680Z,11.60
2023-02-12T11:37:19.709Z,11.60
2023-02-12T11:39:49.221Z,11.60
2023-02-12T11:42:23.342Z,11.50
2023-02-12T11:44:59.652Z,11.60
2023-02-12T11:47:30.828Z,11.70
2023-02-12T11:50:22.905Z,11.60
2023-02-12T11:52:52.579Z,11.60
2023-02-12T11:55:33.406Z,11.40
2023-02-12T11:58:20.672Z,11.40
2023-02-12T12:01:22.329Z,11.30
2023-02-12T12:04:28.912Z,11.40
2023-02-12T12:07:26.189Z,11.60
2023-02-12T12:10:05.733Z,11.70
2023-02-12T12:12:41.816Z,11.70
2023-02-12T12:15:51.320Z,11.80
2023-02-12T12:18:40.375Z,11.90
2023-02-12T12:21:19.060Z,11.80
2023-02-12T12:23:52.155Z,11.90
2023-02-12T12:26:26.028Z,11.90
2023-02-12T12:29:13.996Z,12.00
2023-02-12T12:31:46.154Z,12.00
2023-02-12T12:34:17.237Z,11.90
2023-02-12T12:36:59.669Z,12.00
2023-02-12T12:39:58.039Z,12.10
2023-02-12T12:42:46.744Z,12.00
2023-02-12T12:45:31.904Z,12.00
2023-02-12T12:48:11.210Z,12.10
2023-02-12T12:50:56.619Z,12.10
2023-02-12T12:53:29.824Z,12.10
2023-02-12T12:55:59.982Z,12.10
2023-02-12T12:58:52.246Z,12.10
2023-02-12T13:01:27.125Z,12.20
2023-02-12T13:04:21.785Z,12.30
2023-02-12T13:07:34.269Z,12.40
2023-02-12T13:10:32.100Z,12.50
2023-02-12T13:13:20.263Z,12.50
2023-02-12T13:15:50.482Z,12.60
2023-02-12T13:18:27.288Z,12.80
2023-02-12T13:20:57.512Z,13.00
2023-02-12T13:23:38.872Z,13.00
2023-02-12T13:26:19.224Z,13.10
2023-02-12T13:29:18.616Z,13.20
2023-02-12T13:31:53.012Z,13.20
2023-02-12T13:34:21.856Z,13.40
2023-02-12T13:36:50.020Z,13.50
2023-02-12T13:39:29.640Z,13.50
2023-02-12T13:42:11.705Z,13.60
2023-02-12T13:45:16.477Z,13.60
2023-02-12T13:48:21.960Z,13.60
2023-02-12T13:51:18.102Z,13.50
2023-02-12T13:53:59.451Z,13.50
2023-02-12T13:56:38.485Z,13.50
2023-02-12T13:59:32.093Z,13.50
2023-02-12T14:02:25.989Z,13.50
2023-02-12T14:04:53.348Z,13.60
2023-02-12T14:07:21.736Z,13.60
2023-02-12T14:09:51.903Z,13.60
2023-02-12T14:12:25.337Z,13.70
2023-02-12T14:15:29.299Z,13.70
2023-02-12T14:18:02.681Z,13.80
2023-02-12T14:20:33.250Z,13.80
2023-02-12T14:23:21.368Z,13.70
2023-02-12T14:26:26.760Z,13.70
2023-02-12T14:28:59.054Z,13.70
2023-02-12T14:31:26.402Z,13.70
2023-02-12T14:34:16.143Z,13.80
2023-02-12T14:36:45.965Z,13.70
2023-02-12T14:39:19.427Z,13.70
2023-02-12T14:42:09.555Z,13.60
2023-02-12T14:44:44.600Z,13.60
2023-02-12T14:47:29.724Z,13.50
2023-02-12T14:50:12.728Z,13.50
2023-02-12T14:52:43.748Z,13.50
2023-02-12T14:55:27.808Z,13.40
2023-02-12T14:57:59.205Z,13.40
2023-02-12T15:00:35.252Z,13.30
2023-02-12T15:03:19.928Z,13.30
2023-02-12T15:05:56.750Z,13.30
2023-02-12T15:08:51.872Z,13.30
2023-02-12T15:11:43.712Z,13.30
2023-02-12T15:14:37.013Z,13.20
2023-02-12T15:17:25.077Z,13.10
2023-02-12T15:20:02.713Z,13.10
2023-02-12T15:22:33.085Z,13.10
2023-02-12T15:25:25.931Z,13.00
2023-02-12T15:28:00.590Z,13.00
2023-02-12T15:30:35.622Z,13.00
2023-02-12T15:33:06.676Z,12.90
2023-02-12T15:35:40.192Z,12.80
2023-02-12T15:38:08.208Z,12.80
2023-02-12T15:40:35.659Z,12.70
2023-02-12T15:43:05.844Z,12.70
2023-02-12T15:45:35.552Z,12.70
2023-02-12T15:48:15.851Z,12.60
2023-02-12T15:50:59.746Z,12.60
2023-02-12T15:53:30.686Z,12.50
2023-02-12T15:56:00.554Z,12.50
2023-02-12T15:58:29.575Z,12.40
2023-02-12T16:01:02.965Z,12.40
2023-02-12T16:03:34.024Z,12.30
2023-02-12T16:06:06.386Z,12.20
2023-02-12T16:08:35.470Z,12.10
2023-02-12T16:11:13.730Z,12.00
2023-02-12T16:13:46.884Z,11.90
2023-02-12T16:16:17.657Z,11.80
2023-02-12T16:18:46.634Z,11.80
2023-02-12T16:21:20.573Z,11.70
2023-02-12T16:23:50.484Z,11.60
2023-02-12T16:26:24.326Z,11.50
2023-02-12T16:28:55.038Z,11.50
2023-02-12T16:31:23.581Z,11.40
2023-02-12T16:33:55.592Z,11.30
2023-02-12T16:36:22.910Z,11.20
2023-02-12T16:38:53.333Z,11.10
2023-02-12T16:41:25.427Z,11.00
2023-02-12T16:44:01.645Z,10.90
2023-02-12T16:46:34.524Z,10.80
2023-02-12T16:49:02.780Z,10.80
2023-02-12T16:51:32.462Z,10.70
2023-02-12T16:54:23.945Z,10.60
2023-02-12T16:56:52.216Z,10.60
2023-02-12T16:59:19.631Z,10.60
2023-02-12T17:02:06.806Z,10.40
2023-02-12T17:04:34.176Z,10.40
2023-02-12T17:07:01.941Z,10.40
2023-02-12T17:09:31.985Z,10.30
2023-02-12T17:11:59.381Z,10.20
2023-02-12T17:14:26.828Z,10.20
2023-02-12T17:16:54.353Z,10.20
2023-02-12T17:19:22.898Z,10.10
2023-02-12T17:21:51.947Z,10.10
2023-02-12T17:24:26.197Z,10.00
2023-02-12T17:26:54.417Z,9.90
2023-02-12T17:29:24.590Z,9.90
2023-02-12T17:31:53.937Z,9.90
2023-02-12T17:34:22.602Z,9.80
2023-02-12T17:36:50.443Z,9.70
2023-02-12T17:39:18.194Z,9.70
2023-02-12T17:41:46.723Z,9.60
2023-02-12T17:44:15.131Z,9.60
2023-02-12T17:46:43.154Z,9.60
2023-02-12T17:49:10.569Z,9.60
2023-02-12T17:51:38.316Z,9.60
2023-02-12T17:54:05.790Z,9.60
2023-02-12T17:56:33.352Z,9.50
2023-02-12T17:59:01.632Z,9.50
2023-02-12T18:01:29.149Z,9.50
2023-02-12T18:03:58.826Z,9.40
2023-02-12T18:06:29.216Z,9.40
2023-02-12T18:08:58.475Z,9.50
2023-02-12T18:11:27.755Z,9.40
2023-02-12T18:13:56.717Z,9.40
2023-02-12T18:16:26.515Z,9.30
2023-02-12T18:18:54.201Z,9.30
2023-02-12T18:21:21.641Z,9.20
2023-02-12T18:23:49.182Z,9.30
2023-02-12T18:26:18.326Z,9.30
2023-02-12T18:28:46.344Z,9.30
2023-02-12T18:31:14.301Z,9.30
2023-02-12T18:33:41.973Z,9.30
2023-02-12T18:36:14.836Z,9.30
2023-02-12T18:38:43.084Z,9.30
2023-02-12T18:41:19.472Z,9.40
2023-02-12T18:43:47.018Z,9.30
2023-02-12T18:46:15.838Z,9.20
2023-02-12T18:48:43.647Z,9.20
2023-02-12T18:51:15.134Z,9.20
2023-02-12T18:53:43.303Z,9.30
2023-02-12T18:56:12.419Z,9.30
2023-02-12T18:58:43.491Z,9.20
2023-02-12T19:01:19.307Z,9.10
2023-02-12T19:03:49.439Z,8.90
2023-02-12T19:06:17.020Z,8.80
2023-02-12T19:08:44.396Z,8.70
2023-02-12T19:11:14.783Z,8.70
2023-02-12T19:13:43.902Z,8.60
2023-02-12T19:16:16.781Z,8.60
2023-02-12T19:18:44.468Z,8.60
2023-02-12T19:21:14.542Z,8.70
2023-02-12T19:23:42.702Z,8.70
2023-02-12T19:26:12.749Z,8.70
2023-02-12T19:28:40.557Z,8.60
2023-02-12T19:31:16.367Z,8.50
2023-02-12T19:33:44.897Z,8.40
2023-02-12T19:36:15.240Z,8.30
2023-02-12T19:38:46.324Z,8.30
2023-02-12T19:41:16.786Z,8.30
2023-02-12T19:43:44.569Z,8.20
2023-02-12T19:46:21.795Z,8.20
2023-02-12T19:48:49.616Z,8.10
2023-02-12T19:51:19.544Z,8.20
2023-02-12T19:53:48.479Z,8.10
2023-02-12T19:56:16.462Z,8.20
2023-02-12T19:58:44.834Z,8.10
2023-02-12T20:01:16.374Z,7.90
2023-02-12T20:03:44.972Z,7.80
2023-02-12T20:06:19.624Z,7.70
2023-02-12T20:08:47.030Z,7.60
2023-02-12T20:11:17.858Z,7.40
2023-02-12T20:13:48.685Z,7.30
2023-02-12T20:16:19.420Z,7.20
2023-02-12T20:18:49.017Z,7.10
2023-02-12T20:21:28.428Z,7.10
2023-02-12T20:23:57.253Z,7.00
2023-02-12T20:26:25.197Z,6.90
2023-02-12T20:28:52.823Z,6.90
2023-02-12T20:31:26.219Z,6.90
2023-02-12T20:33:59.792Z,6.90
2023-02-12T20:36:30.267Z,6.90
2023-02-12T20:38:58.368Z,6.80
2023-02-12T20:41:27.331Z,6.80
2023-02-12T20:43:55.838Z,6.80
2023-02-12T20:46:24.956Z,6.70
2023-02-12T20:48:54.308Z,6.80
2023-02-12T20:51:25.273Z,6.70
2023-02-12T20:53:54.141Z,6.60
2023-02-12T20:56:27.009Z,6.60
2023-02-12T20:58:54.928Z,6.50
2023-02-12T21:01:34.789Z,6.40
2023-02-12T21:04:14.210Z,6.20
2023-02-12T21:06:42.146Z,6.10
2023-02-12T21:09:11.638Z,6.00
2023-02-12T21:11:41.009Z,5.90
2023-02-12T21:14:21.831Z,5.90
2023-02-12T21:16:50.812Z,5.90
2023-02-12T21:19:18.926Z,5.90
2023-02-12T21:21:46.463Z,5.80
2023-02-12T21:24:16.910Z,5.70
2023-02-12T21:26:44.637Z,5.70
2023-02-12T21:29:12.422Z,5.90
2023-02-12T21:31:42.341Z,5.90
2023-02-12T21:34:17.506Z,5.90
2023-02-12T21:36:46.554Z,5.80
2023-02-12T21:39:27.541Z,6.00
2023-02-12T21:42:00.945Z,6.10
2023-02-12T21:44:29.811Z,6.10
2023-02-12T21:47:00.436Z,6.20
2023-02-12T21:49:28.640Z,6.20
2023-02-12T21:52:02.258Z,6.10
2023-02-12T21:54:33.914Z,6.10
2023-02-12T21:57:01.699Z,6.20
2023-02-12T21:59:38.056Z,6.10
2023-02-12T22:02:06.920Z,6.00
2023-02-12T22:04:34.469Z,6.00
2023-02-12T22:07:12.086Z,6.00
2023-02-12T22:09:42.725Z,6.00
2023-02-12T22:12:10.305Z,6.00
2023-02-12T22:14:38.948Z,5.90
2023-02-12T22:17:18.660Z,5.90
2023-02-12T22:19:46.890Z,5.90
2023-02-12T22:22:14.619Z,5.80
2023-02-12T22:24:49.099Z,5.80
2023-02-12T22:27:17.014Z,5.60
2023-02-12T22:29:53.075Z,5.50
2023-02-12T22:32:26.951Z,5.50
2023-02-12T22:34:57.241Z,5.50
2023-02-12T22:37:28.391Z,5.50
2023-02-12T22:39:56.143Z,5.60
2023-02-12T22:42:35.844Z,5.70
2023-02-12T22:45:08.690Z,5.70
2023-02-12T22:47:36.146Z,5.50
2023-02-12T22:50:03.962Z,5.60
2023-02-12T22:52:31.975Z,5.70
2023-02-12T22:54:59.362Z,5.80
2023-02-12T22:57:26.821Z,5.80
2023-02-12T22:59:55.155Z,5.80
2023-02-12T23:02:22.638Z,5.80
2023-02-12T23:04:50.015Z,5.90
2023-02-12T23:07:17.382Z,5.90
2023-02-12T23:09:44.778Z,5.90
2023-02-12T23:12:12.315Z,5.90
2023-02-12T23:14:39.736Z,5.90
2023-02-12T23:17:07.165Z,5.90
2023-02-12T23:19:34.572Z,5.90
2023-02-12T23:22:02.224Z,5.90
2023-02-12T23:24:29.582Z,6.00
2023-02-12T23:26:57.008Z,6.00
2023-02-12T23:29:24.405Z,6.00
2023-02-12T23:31:51.784Z,6.00
2023-02-12T23:34:19.222Z,6.00
2023-02-12T23:36:46.683Z,6.00
2023-02-12T23:39:14.253Z,6.00
2023-02-12T23:41:41.804Z,6.00
2023-02-12T23:44:09.721Z,6.10
2023-02-12T23:46:37.519Z,6.10
2023-02-12T23:49:05.692Z,6.10
2023-02-12T23:51:33.667Z,6.00
2023-02-12T23:54:02.702Z,6.00
2023-02-12T23:56:30.215Z,6.00
2023-02-12T23:58:57.832Z,6.10
